sensor_id;sensor_type;location;lat;lon;timestamp;P1;durP1;ratioP1;P2;durP2;ratioP2
18102;SDS011;9178;51.120;6.192;2024-01-07T00:02:09;40.93;;;21.27;;
18102;SDS011;9178;51.120;6.192;2024-01-07T00:04:36;42.57;;;21.87;;
18102;SDS011;9178;51.120;6.192;2024-01-07T00:07:03;39.37;;;21.27;;
18102;SDS011;9178;51.120;6.192;2024-01-07T00:09:31;41.70;;;22.13;;
18102;SDS011;9178;51.120;6.192;2024-01-07T00:11:58;47.27;;;22.13;;
18102;SDS011;9178;51.120;6.192;2024-01-07T00:14:26;44.77;;;22.17;;
18102;SDS011;9178;51.120;6.192;2024-01-07T00:16:53;42.03;;;21.70;;
18102;SDS011;9178;51.120;6.192;2024-01-07T00:19:23;42.93;;;22.33;;
18102;SDS011;9178;51.120;6.192;2024-01-07T00:24:41;43.03;;;23.20;;
18102;SDS011;9178;51.120;6.192;2024-01-07T00:27:08;46.67;;;23.80;;
18102;SDS011;9178;51.120;6.192;2024-01-07T00:29:36;43.03;;;22.67;;
18102;SDS011;9178;51.120;6.192;2024-01-07T00:32:03;44.93;;;22.47;;
18102;SDS011;9178;51.120;6.192;2024-01-07T00:34:31;49.93;;;23.73;;
18102;SDS011;9178;51.120;6.192;2024-01-07T00:36:58;47.67;;;23.13;;
18102;SDS011;9178;51.120;6.192;2024-01-07T00:39:25;52.43;;;24.67;;
18102;SDS011;9178;51.120;6.192;2024-01-07T00:41:52;48.43;;;23.37;;
18102;SDS011;9178;51.120;6.192;2024-01-07T00:44:19;50.33;;;23.50;;
18102;SDS011;9178;51.120;6.192;2024-01-07T00:46:48;48.13;;;23.87;;
18102;SDS011;9178;51.120;6.192;2024-01-07T00:49:15;44.53;;;23.27;;
18102;SDS011;9178;51.120;6.192;2024-01-07T00:51:42;43.67;;;21.80;;
18102;SDS011;9178;51.120;6.192;2024-01-07T00:54:12;48.70;;;23.53;;
18102;SDS011;9178;51.120;6.192;2024-01-07T00:56:41;49.27;;;24.10;;
18102;SDS011;9178;51.120;6.192;2024-01-07T00:59:08;47.00;;;23.80;;
18102;SDS011;9178;51.120;6.192;2024-01-07T01:01:35;55.63;;;25.23;;
18102;SDS011;9178;51.120;6.192;2024-01-07T01:04:04;49.30;;;25.10;;
18102;SDS011;9178;51.120;6.192;2024-01-07T01:06:31;48.60;;;24.17;;
18102;SDS011;9178;51.120;6.192;2024-01-07T01:08:58;50.63;;;23.73;;
18102;SDS011;9178;51.120;6.192;2024-01-07T01:11:25;44.90;;;23.13;;
18102;SDS011;9178;51.120;6.192;2024-01-07T01:13:52;43.27;;;22.87;;
18102;SDS011;9178;51.120;6.192;2024-01-07T01:16:22;50.63;;;24.13;;
18102;SDS011;9178;51.120;6.192;2024-01-07T01:18:49;52.40;;;24.13;;
18102;SDS011;9178;51.120;6.192;2024-01-07T01:21:17;43.63;;;23.00;;
18102;SDS011;9178;51.120;6.192;2024-01-07T01:23:47;44.20;;;21.57;;
18102;SDS011;9178;51.120;6.192;2024-01-07T01:26:14;49.40;;;23.27;;
18102;SDS011;9178;51.120;6.192;2024-01-07T01:28:41;44.53;;;21.97;;
18102;SDS011;9178;51.120;6.192;2024-01-07T01:31:08;42.47;;;20.97;;
18102;SDS011;9178;51.120;6.192;2024-01-07T01:33:39;41.60;;;19.30;;
18102;SDS011;9178;51.120;6.192;2024-01-07T01:36:06;40.70;;;19.80;;
18102;SDS011;9178;51.120;6.192;2024-01-07T01:38:35;39.43;;;18.73;;
18102;SDS011;9178;51.120;6.192;2024-01-07T01:41:03;44.37;;;20.23;;
18102;SDS011;9178;51.120;6.192;2024-01-07T01:43:30;41.17;;;19.77;;
18102;SDS011;9178;51.120;6.192;2024-01-07T01:45:58;35.60;;;17.70;;
18102;SDS011;9178;51.120;6.192;2024-01-07T01:48:26;39.13;;;18.40;;
18102;SDS011;9178;51.120;6.192;2024-01-07T01:50:54;40.63;;;17.93;;
18102;SDS011;9178;51.120;6.192;2024-01-07T01:53:23;31.73;;;16.43;;
18102;SDS011;9178;51.120;6.192;2024-01-07T01:55:53;35.40;;;17.70;;
18102;SDS011;9178;51.120;6.192;2024-01-07T01:58:23;40.13;;;17.63;;
18102;SDS011;9178;51.120;6.192;2024-01-07T02:00:51;35.17;;;15.93;;
18102;SDS011;9178;51.120;6.192;2024-01-07T02:03:26;44.80;;;18.50;;
18102;SDS011;9178;51.120;6.192;2024-01-07T02:05:53;34.90;;;17.07;;
18102;SDS011;9178;51.120;6.192;2024-01-07T02:08:21;35.40;;;17.50;;
18102;SDS011;9178;51.120;6.192;2024-01-07T02:10:48;41.13;;;18.13;;
18102;SDS011;9178;51.120;6.192;2024-01-07T02:13:17;39.80;;;17.73;;
18102;SDS011;9178;51.120;6.192;2024-01-07T02:15:44;38.97;;;17.87;;
18102;SDS011;9178;51.120;6.192;2024-01-07T02:18:11;35.93;;;17.50;;
18102;SDS011;9178;51.120;6.192;2024-01-07T02:20:39;38.80;;;17.17;;
18102;SDS011;9178;51.120;6.192;2024-01-07T02:23:06;40.00;;;17.57;;
18102;SDS011;9178;51.120;6.192;2024-01-07T02:25:38;35.80;;;17.07;;
18102;SDS011;9178;51.120;6.192;2024-01-07T02:28:05;36.43;;;16.73;;
18102;SDS011;9178;51.120;6.192;2024-01-07T02:30:33;35.03;;;15.77;;
18102;SDS011;9178;51.120;6.192;2024-01-07T02:33:01;34.87;;;16.70;;
18102;SDS011;9178;51.120;6.192;2024-01-07T02:35:31;32.57;;;15.60;;
18102;SDS011;9178;51.120;6.192;2024-01-07T02:37:58;34.00;;;16.37;;
18102;SDS011;9178;51.120;6.192;2024-01-07T02:40:25;28.20;;;14.70;;
18102;SDS011;9178;51.120;6.192;2024-01-07T02:42:54;30.20;;;14.97;;
18102;SDS011;9178;51.120;6.192;2024-01-07T02:45:22;38.00;;;16.47;;
18102;SDS011;9178;51.120;6.192;2024-01-07T02:47:49;32.67;;;15.77;;
18102;SDS011;9178;51.120;6.192;2024-01-07T02:50:17;32.43;;;16.07;;
18102;SDS011;9178;51.120;6.192;2024-01-07T02:52:44;33.47;;;15.97;;
18102;SDS011;9178;51.120;6.192;2024-01-07T02:55:13;32.20;;;16.13;;
18102;SDS011;9178;51.120;6.192;2024-01-07T02:57:42;32.10;;;16.20;;
18102;SDS011;9178;51.120;6.192;2024-01-07T03:00:10;32.60;;;16.17;;
18102;SDS011;9178;51.120;6.192;2024-01-07T03:02:38;29.50;;;16.00;;
18102;SDS011;9178;51.120;6.192;2024-01-07T03:05:06;30.43;;;16.07;;
18102;SDS011;9178;51.120;6.192;2024-01-07T03:07:33;30.67;;;16.33;;
18102;SDS011;9178;51.120;6.192;2024-01-07T03:10:00;28.13;;;14.60;;
18102;SDS011;9178;51.120;6.192;2024-01-07T03:12:28;31.87;;;16.07;;
18102;SDS011;9178;51.120;6.192;2024-01-07T03:14:55;33.70;;;16.77;;
18102;SDS011;9178;51.120;6.192;2024-01-07T03:17:23;26.00;;;15.70;;
18102;SDS011;9178;51.120;6.192;2024-01-07T03:19:51;29.30;;;15.30;;
18102;SDS011;9178;51.120;6.192;2024-01-07T03:22:21;25.43;;;14.93;;
18102;SDS011;9178;51.120;6.192;2024-01-07T03:24:48;25.83;;;14.57;;
18102;SDS011;9178;51.120;6.192;2024-01-07T03:27:15;27.57;;;15.73;;
18102;SDS011;9178;51.120;6.192;2024-01-07T03:29:42;28.07;;;16.10;;
18102;SDS011;9178;51.120;6.192;2024-01-07T03:32:11;27.33;;;15.53;;
18102;SDS011;9178;51.120;6.192;2024-01-07T03:34:40;27.90;;;15.30;;
18102;SDS011;9178;51.120;6.192;2024-01-07T03:37:07;27.37;;;15.33;;
18102;SDS011;9178;51.120;6.192;2024-01-07T03:39:34;24.63;;;14.13;;
18102;SDS011;9178;51.120;6.192;2024-01-07T03:42:01;25.00;;;14.80;;
18102;SDS011;9178;51.120;6.192;2024-01-07T03:44:28;25.63;;;14.63;;
18102;SDS011;9178;51.120;6.192;2024-01-07T03:46:55;23.77;;;14.03;;
18102;SDS011;9178;51.120;6.192;2024-01-07T03:49:22;26.53;;;15.00;;
18102;SDS011;9178;51.120;6.192;2024-01-07T03:51:51;26.00;;;15.13;;
18102;SDS011;9178;51.120;6.192;2024-01-07T03:54:18;25.67;;;14.87;;
18102;SDS011;9178;51.120;6.192;2024-01-07T03:56:45;27.27;;;15.93;;
18102;SDS011;9178;51.120;6.192;2024-01-07T03:59:13;30.57;;;16.77;;
18102;SDS011;9178;51.120;6.192;2024-01-07T04:01:40;27.47;;;15.77;;
18102;SDS011;9178;51.120;6.192;2024-01-07T04:04:07;30.20;;;16.80;;
18102;SDS011;9178;51.120;6.192;2024-01-07T04:06:35;30.73;;;16.70;;
18102;SDS011;9178;51.120;6.192;2024-01-07T04:09:04;35.27;;;17.47;;
18102;SDS011;9178;51.120;6.192;2024-01-07T04:11:31;29.03;;;16.30;;
18102;SDS011;9178;51.120;6.192;2024-01-07T04:13:58;32.93;;;17.57;;
18102;SDS011;9178;51.120;6.192;2024-01-07T04:16:25;30.97;;;17.17;;
18102;SDS011;9178;51.120;6.192;2024-01-07T04:18:52;31.33;;;16.87;;
18102;SDS011;9178;51.120;6.192;2024-01-07T04:21:19;28.83;;;16.90;;
18102;SDS011;9178;51.120;6.192;2024-01-07T04:23:49;33.40;;;17.63;;
18102;SDS011;9178;51.120;6.192;2024-01-07T04:26:18;30.07;;;17.33;;
18102;SDS011;9178;51.120;6.192;2024-01-07T04:28:47;28.40;;;16.77;;
18102;SDS011;9178;51.120;6.192;2024-01-07T04:31:14;30.00;;;17.37;;
18102;SDS011;9178;51.120;6.192;2024-01-07T04:33:41;34.47;;;17.13;;
18102;SDS011;9178;51.120;6.192;2024-01-07T04:36:08;33.23;;;18.10;;
18102;SDS011;9178;51.120;6.192;2024-01-07T04:38:35;34.77;;;18.80;;
18102;SDS011;9178;51.120;6.192;2024-01-07T04:41:03;37.47;;;18.60;;
18102;SDS011;9178;51.120;6.192;2024-01-07T04:43:33;34.57;;;19.37;;
18102;SDS011;9178;51.120;6.192;2024-01-07T04:46:01;35.80;;;19.20;;
18102;SDS011;9178;51.120;6.192;2024-01-07T04:48:28;35.90;;;18.47;;
18102;SDS011;9178;51.120;6.192;2024-01-07T04:50:55;34.40;;;18.33;;
18102;SDS011;9178;51.120;6.192;2024-01-07T04:53:22;37.03;;;18.10;;
18102;SDS011;9178;51.120;6.192;2024-01-07T04:55:49;35.80;;;18.80;;
18102;SDS011;9178;51.120;6.192;2024-01-07T04:58:16;36.00;;;18.50;;
18102;SDS011;9178;51.120;6.192;2024-01-07T05:00:44;35.00;;;18.30;;
18102;SDS011;9178;51.120;6.192;2024-01-07T05:03:11;32.93;;;17.50;;
18102;SDS011;9178;51.120;6.192;2024-01-07T05:05:38;34.87;;;17.47;;
18102;SDS011;9178;51.120;6.192;2024-01-07T05:08:05;34.37;;;17.03;;
18102;SDS011;9178;51.120;6.192;2024-01-07T05:10:33;30.03;;;16.83;;
18102;SDS011;9178;51.120;6.192;2024-01-07T05:13:00;28.97;;;16.40;;
18102;SDS011;9178;51.120;6.192;2024-01-07T05:15:30;31.07;;;16.83;;
18102;SDS011;9178;51.120;6.192;2024-01-07T05:17:58;31.37;;;15.57;;
18102;SDS011;9178;51.120;6.192;2024-01-07T05:20:26;28.27;;;15.60;;
18102;SDS011;9178;51.120;6.192;2024-01-07T05:22:53;27.53;;;16.07;;
18102;SDS011;9178;51.120;6.192;2024-01-07T05:25:19;24.67;;;14.67;;
18102;SDS011;9178;51.120;6.192;2024-01-07T05:27:47;30.83;;;15.97;;
18102;SDS011;9178;51.120;6.192;2024-01-07T05:30:14;26.00;;;15.60;;
18102;SDS011;9178;51.120;6.192;2024-01-07T05:32:41;26.07;;;14.17;;
18102;SDS011;9178;51.120;6.192;2024-01-07T05:35:09;24.43;;;15.03;;
18102;SDS011;9178;51.120;6.192;2024-01-07T05:37:36;23.10;;;14.27;;
18102;SDS011;9178;51.120;6.192;2024-01-07T05:40:04;21.70;;;13.70;;
18102;SDS011;9178;51.120;6.192;2024-01-07T05:42:32;24.97;;;14.97;;
18102;SDS011;9178;51.120;6.192;2024-01-07T05:45:00;20.90;;;14.43;;
18102;SDS011;9178;51.120;6.192;2024-01-07T05:47:28;22.17;;;15.17;;
18102;SDS011;9178;51.120;6.192;2024-01-07T05:49:55;22.43;;;14.93;;
18102;SDS011;9178;51.120;6.192;2024-01-07T05:52:23;23.93;;;15.37;;
18102;SDS011;9178;51.120;6.192;2024-01-07T05:54:50;24.20;;;15.10;;
18102;SDS011;9178;51.120;6.192;2024-01-07T05:57:17;25.13;;;16.47;;
18102;SDS011;9178;51.120;6.192;2024-01-07T05:59:45;24.80;;;15.40;;
18102;SDS011;9178;51.120;6.192;2024-01-07T06:02:12;25.90;;;16.63;;
18102;SDS011;9178;51.120;6.192;2024-01-07T06:04:39;23.73;;;16.37;;
18102;SDS011;9178;51.120;6.192;2024-01-07T06:07:07;27.60;;;17.60;;
18102;SDS011;9178;51.120;6.192;2024-01-07T06:09:35;27.30;;;17.27;;
18102;SDS011;9178;51.120;6.192;2024-01-07T06:12:02;25.57;;;16.80;;
18102;SDS011;9178;51.120;6.192;2024-01-07T06:14:30;23.13;;;16.10;;
18102;SDS011;9178;51.120;6.192;2024-01-07T06:16:58;27.77;;;16.77;;
18102;SDS011;9178;51.120;6.192;2024-01-07T06:19:26;24.17;;;16.00;;
18102;SDS011;9178;51.120;6.192;2024-01-07T06:21:53;24.37;;;16.63;;
18102;SDS011;9178;51.120;6.192;2024-01-07T06:24:20;23.63;;;16.20;;
18102;SDS011;9178;51.120;6.192;2024-01-07T06:26:49;26.13;;;16.13;;
18102;SDS011;9178;51.120;6.192;2024-01-07T06:29:15;25.23;;;15.67;;
18102;SDS011;9178;51.120;6.192;2024-01-07T06:31:42;26.10;;;16.23;;
18102;SDS011;9178;51.120;6.192;2024-01-07T06:34:10;25.73;;;16.23;;
18102;SDS011;9178;51.120;6.192;2024-01-07T06:36:39;23.03;;;16.10;;
18102;SDS011;9178;51.120;6.192;2024-01-07T06:39:07;24.43;;;14.97;;
18102;SDS011;9178;51.120;6.192;2024-01-07T06:41:34;26.60;;;16.60;;
18102;SDS011;9178;51.120;6.192;2024-01-07T06:44:03;22.70;;;16.13;;
18102;SDS011;9178;51.120;6.192;2024-01-07T06:46:30;24.63;;;17.10;;
18102;SDS011;9178;51.120;6.192;2024-01-07T06:48:59;27.43;;;17.37;;
18102;SDS011;9178;51.120;6.192;2024-01-07T06:51:26;25.27;;;18.03;;
18102;SDS011;9178;51.120;6.192;2024-01-07T06:53:54;23.70;;;16.80;;
18102;SDS011;9178;51.120;6.192;2024-01-07T06:56:21;25.07;;;17.20;;
18102;SDS011;9178;51.120;6.192;2024-01-07T06:58:49;24.10;;;16.67;;
18102;SDS011;9178;51.120;6.192;2024-01-07T07:01:21;22.93;;;17.07;;
18102;SDS011;9178;51.120;6.192;2024-01-07T07:03:48;22.27;;;14.47;;
18102;SDS011;9178;51.120;6.192;2024-01-07T07:06:18;21.43;;;14.60;;
18102;SDS011;9178;51.120;6.192;2024-01-07T07:08:45;18.90;;;13.60;;
18102;SDS011;9178;51.120;6.192;2024-01-07T07:11:13;21.70;;;14.40;;
18102;SDS011;9178;51.120;6.192;2024-01-07T07:13:40;20.70;;;14.40;;
18102;SDS011;9178;51.120;6.192;2024-01-07T07:16:08;22.20;;;14.97;;
18102;SDS011;9178;51.120;6.192;2024-01-07T07:18:36;25.37;;;15.73;;
18102;SDS011;9178;51.120;6.192;2024-01-07T07:21:04;21.77;;;15.23;;
18102;SDS011;9178;51.120;6.192;2024-01-07T07:23:36;22.37;;;15.17;;
18102;SDS011;9178;51.120;6.192;2024-01-07T07:26:03;19.73;;;14.60;;
18102;SDS011;9178;51.120;6.192;2024-01-07T07:28:31;20.47;;;14.30;;
18102;SDS011;9178;51.120;6.192;2024-01-07T07:30:58;19.67;;;14.13;;
18102;SDS011;9178;51.120;6.192;2024-01-07T07:33:25;22.20;;;14.90;;
18102;SDS011;9178;51.120;6.192;2024-01-07T07:35:53;22.83;;;16.03;;
18102;SDS011;9178;51.120;6.192;2024-01-07T07:38:21;22.77;;;15.00;;
18102;SDS011;9178;51.120;6.192;2024-01-07T07:40:48;24.40;;;16.07;;
18102;SDS011;9178;51.120;6.192;2024-01-07T07:43:17;24.77;;;16.23;;
18102;SDS011;9178;51.120;6.192;2024-01-07T07:45:48;21.60;;;15.30;;
18102;SDS011;9178;51.120;6.192;2024-01-07T07:48:16;22.47;;;15.40;;
18102;SDS011;9178;51.120;6.192;2024-01-07T07:50:43;23.67;;;15.97;;
18102;SDS011;9178;51.120;6.192;2024-01-07T07:53:11;21.77;;;15.70;;
18102;SDS011;9178;51.120;6.192;2024-01-07T07:55:38;25.33;;;16.50;;
18102;SDS011;9178;51.120;6.192;2024-01-07T07:58:05;22.90;;;16.00;;
18102;SDS011;9178;51.120;6.192;2024-01-07T08:00:33;24.37;;;16.70;;
18102;SDS011;9178;51.120;6.192;2024-01-07T08:03:00;25.67;;;17.73;;
18102;SDS011;9178;51.120;6.192;2024-01-07T08:05:28;27.97;;;17.77;;
18102;SDS011;9178;51.120;6.192;2024-01-07T08:07:55;27.70;;;17.60;;
18102;SDS011;9178;51.120;6.192;2024-01-07T08:10:26;26.70;;;17.73;;
18102;SDS011;9178;51.120;6.192;2024-01-07T08:12:53;28.67;;;19.30;;
18102;SDS011;9178;51.120;6.192;2024-01-07T08:15:21;29.37;;;17.80;;
18102;SDS011;9178;51.120;6.192;2024-01-07T08:17:48;29.50;;;17.37;;
18102;SDS011;9178;51.120;6.192;2024-01-07T08:20:16;27.93;;;17.97;;
18102;SDS011;9178;51.120;6.192;2024-01-07T08:22:44;26.90;;;16.60;;
18102;SDS011;9178;51.120;6.192;2024-01-07T08:25:12;24.63;;;16.53;;
18102;SDS011;9178;51.120;6.192;2024-01-07T08:27:49;25.87;;;15.43;;
18102;SDS011;9178;51.120;6.192;2024-01-07T08:30:20;24.23;;;15.57;;
18102;SDS011;9178;51.120;6.192;2024-01-07T08:32:56;22.83;;;15.83;;
18102;SDS011;9178;51.120;6.192;2024-01-07T08:35:25;21.97;;;16.00;;
18102;SDS011;9178;51.120;6.192;2024-01-07T08:37:53;19.93;;;15.17;;
18102;SDS011;9178;51.120;6.192;2024-01-07T08:40:20;22.17;;;15.57;;
18102;SDS011;9178;51.120;6.192;2024-01-07T08:42:49;26.03;;;16.80;;
18102;SDS011;9178;51.120;6.192;2024-01-07T08:45:22;22.77;;;15.80;;
18102;SDS011;9178;51.120;6.192;2024-01-07T08:47:50;22.77;;;15.30;;
18102;SDS011;9178;51.120;6.192;2024-01-07T08:50:17;21.93;;;15.70;;
18102;SDS011;9178;51.120;6.192;2024-01-07T08:52:45;20.57;;;14.23;;
18102;SDS011;9178;51.120;6.192;2024-01-07T08:55:13;19.00;;;14.13;;
18102;SDS011;9178;51.120;6.192;2024-01-07T08:57:43;18.90;;;14.27;;
18102;SDS011;9178;51.120;6.192;2024-01-07T09:00:16;20.77;;;15.37;;
18102;SDS011;9178;51.120;6.192;2024-01-07T09:02:44;20.40;;;14.63;;
18102;SDS011;9178;51.120;6.192;2024-01-07T09:05:11;18.13;;;14.00;;
18102;SDS011;9178;51.120;6.192;2024-01-07T09:07:40;19.60;;;14.30;;
18102;SDS011;9178;51.120;6.192;2024-01-07T09:10:07;19.73;;;15.00;;
18102;SDS011;9178;51.120;6.192;2024-01-07T09:12:36;21.33;;;14.40;;
18102;SDS011;9178;51.120;6.192;2024-01-07T09:15:04;21.80;;;14.53;;
18102;SDS011;9178;51.120;6.192;2024-01-07T09:17:35;21.50;;;15.57;;
18102;SDS011;9178;51.120;6.192;2024-01-07T09:20:03;21.40;;;15.30;;
18102;SDS011;9178;51.120;6.192;2024-01-07T09:22:33;18.90;;;14.20;;
18102;SDS011;9178;51.120;6.192;2024-01-07T09:25:01;21.60;;;15.23;;
18102;SDS011;9178;51.120;6.192;2024-01-07T09:27:28;20.47;;;14.97;;
18102;SDS011;9178;51.120;6.192;2024-01-07T09:29:59;20.27;;;14.67;;
18102;SDS011;9178;51.120;6.192;2024-01-07T09:32:26;20.73;;;14.00;;
18102;SDS011;9178;51.120;6.192;2024-01-07T09:34:54;18.00;;;13.77;;
18102;SDS011;9178;51.120;6.192;2024-01-07T09:37:24;18.00;;;13.20;;
18102;SDS011;9178;51.120;6.192;2024-01-07T09:39:51;19.63;;;14.00;;
18102;SDS011;9178;51.120;6.192;2024-01-07T09:42:19;15.43;;;11.53;;
18102;SDS011;9178;51.120;6.192;2024-01-07T09:44:46;17.17;;;12.17;;
18102;SDS011;9178;51.120;6.192;2024-01-07T09:47:14;15.50;;;12.13;;
18102;SDS011;9178;51.120;6.192;2024-01-07T09:49:42;17.70;;;12.93;;
18102;SDS011;9178;51.120;6.192;2024-01-07T09:52:12;16.80;;;12.33;;
18102;SDS011;9178;51.120;6.192;2024-01-07T09:54:39;17.20;;;12.37;;
18102;SDS011;9178;51.120;6.192;2024-01-07T09:57:07;18.37;;;12.93;;
18102;SDS011;9178;51.120;6.192;2024-01-07T09:59:34;15.30;;;11.47;;
18102;SDS011;9178;51.120;6.192;2024-01-07T10:02:02;16.07;;;11.50;;
18102;SDS011;9178;51.120;6.192;2024-01-07T10:04:29;15.87;;;11.60;;
18102;SDS011;9178;51.120;6.192;2024-01-07T10:06:56;15.43;;;10.90;;
18102;SDS011;9178;51.120;6.192;2024-01-07T10:09:28;12.30;;;10.47;;
18102;SDS011;9178;51.120;6.192;2024-01-07T10:11:56;14.47;;;10.10;;
18102;SDS011;9178;51.120;6.192;2024-01-07T10:14:23;12.93;;;10.00;;
18102;SDS011;9178;51.120;6.192;2024-01-07T10:16:51;15.73;;;10.17;;
18102;SDS011;9178;51.120;6.192;2024-01-07T10:19:25;14.97;;;10.73;;
18102;SDS011;9178;51.120;6.192;2024-01-07T10:21:58;15.67;;;10.27;;
18102;SDS011;9178;51.120;6.192;2024-01-07T10:24:31;13.83;;;10.53;;
18102;SDS011;9178;51.120;6.192;2024-01-07T10:27:04;14.37;;;11.70;;
18102;SDS011;9178;51.120;6.192;2024-01-07T10:29:31;15.23;;;11.83;;
18102;SDS011;9178;51.120;6.192;2024-01-07T10:31:59;14.53;;;11.37;;
18102;SDS011;9178;51.120;6.192;2024-01-07T10:34:30;15.77;;;11.90;;
18102;SDS011;9178;51.120;6.192;2024-01-07T10:36:58;17.10;;;12.67;;
18102;SDS011;9178;51.120;6.192;2024-01-07T10:39:26;15.57;;;12.00;;
18102;SDS011;9178;51.120;6.192;2024-01-07T10:41:56;17.70;;;11.97;;
18102;SDS011;9178;51.120;6.192;2024-01-07T10:44:25;15.93;;;12.00;;
18102;SDS011;9178;51.120;6.192;2024-01-07T10:46:53;13.97;;;11.10;;
18102;SDS011;9178;51.120;6.192;2024-01-07T10:49:22;15.77;;;11.20;;
18102;SDS011;9178;51.120;6.192;2024-01-07T10:51:58;12.80;;;10.10;;
18102;SDS011;9178;51.120;6.192;2024-01-07T10:54:31;16.57;;;11.43;;
18102;SDS011;9178;51.120;6.192;2024-01-07T10:57:02;13.63;;;9.60;;
18102;SDS011;9178;51.120;6.192;2024-01-07T10:59:37;15.73;;;10.63;;
18102;SDS011;9178;51.120;6.192;2024-01-07T11:02:07;13.60;;;10.67;;
18102;SDS011;9178;51.120;6.192;2024-01-07T11:04:37;12.90;;;9.80;;
18102;SDS011;9178;51.120;6.192;2024-01-07T11:07:12;13.23;;;9.77;;
18102;SDS011;9178;51.120;6.192;2024-01-07T11:09:50;11.23;;;8.67;;
18102;SDS011;9178;51.120;6.192;2024-01-07T11:12:27;12.50;;;9.47;;
18102;SDS011;9178;51.120;6.192;2024-01-07T11:15:01;11.23;;;8.57;;
18102;SDS011;9178;51.120;6.192;2024-01-07T11:17:41;11.43;;;8.67;;
18102;SDS011;9178;51.120;6.192;2024-01-07T11:20:18;13.47;;;9.93;;
18102;SDS011;9178;51.120;6.192;2024-01-07T11:22:49;13.40;;;10.00;;
18102;SDS011;9178;51.120;6.192;2024-01-07T11:25:30;14.17;;;10.17;;
18102;SDS011;9178;51.120;6.192;2024-01-07T11:28:04;14.67;;;9.90;;
18102;SDS011;9178;51.120;6.192;2024-01-07T11:30:37;13.60;;;10.27;;
18102;SDS011;9178;51.120;6.192;2024-01-07T11:33:07;12.70;;;9.90;;
18102;SDS011;9178;51.120;6.192;2024-01-07T11:35:53;11.43;;;9.33;;
18102;SDS011;9178;51.120;6.192;2024-01-07T11:38:23;9.47;;;8.13;;
18102;SDS011;9178;51.120;6.192;2024-01-07T11:41:04;11.43;;;8.93;;
18102;SDS011;9178;51.120;6.192;2024-01-07T11:43:38;9.83;;;8.43;;
18102;SDS011;9178;51.120;6.192;2024-01-07T11:46:18;10.27;;;8.37;;
18102;SDS011;9178;51.120;6.192;2024-01-07T11:48:45;10.53;;;8.23;;
18102;SDS011;9178;51.120;6.192;2024-01-07T11:51:13;12.10;;;8.77;;
18102;SDS011;9178;51.120;6.192;2024-01-07T11:53:41;10.87;;;8.83;;
18102;SDS011;9178;51.120;6.192;2024-01-07T11:56:09;12.33;;;8.27;;
18102;SDS011;9178;51.120;6.192;2024-01-07T11:58:37;10.27;;;9.10;;
18102;SDS011;9178;51.120;6.192;2024-01-07T12:01:06;10.10;;;8.43;;
18102;SDS011;9178;51.120;6.192;2024-01-07T12:03:33;9.47;;;7.77;;
18102;SDS011;9178;51.120;6.192;2024-01-07T12:06:06;9.13;;;7.63;;
18102;SDS011;9178;51.120;6.192;2024-01-07T12:08:33;8.93;;;7.63;;
18102;SDS011;9178;51.120;6.192;2024-01-07T12:11:00;8.53;;;7.17;;
18102;SDS011;9178;51.120;6.192;2024-01-07T12:13:28;9.33;;;7.80;;
18102;SDS011;9178;51.120;6.192;2024-01-07T12:15:58;11.30;;;7.73;;
18102;SDS011;9178;51.120;6.192;2024-01-07T12:18:25;10.50;;;7.80;;
18102;SDS011;9178;51.120;6.192;2024-01-07T12:20:55;7.93;;;7.13;;
18102;SDS011;9178;51.120;6.192;2024-01-07T12:23:23;8.87;;;7.20;;
18102;SDS011;9178;51.120;6.192;2024-01-07T12:25:54;11.07;;;7.03;;
18102;SDS011;9178;51.120;6.192;2024-01-07T12:28:33;9.43;;;6.70;;
18102;SDS011;9178;51.120;6.192;2024-01-07T12:31:01;7.83;;;6.67;;
18102;SDS011;9178;51.120;6.192;2024-01-07T12:33:29;9.47;;;6.83;;
18102;SDS011;9178;51.120;6.192;2024-01-07T12:36:01;9.13;;;7.13;;
18102;SDS011;9178;51.120;6.192;2024-01-07T12:38:29;10.00;;;7.73;;
18102;SDS011;9178;51.120;6.192;2024-01-07T12:40:59;9.17;;;6.33;;
18102;SDS011;9178;51.120;6.192;2024-01-07T12:43:26;9.90;;;7.10;;
18102;SDS011;9178;51.120;6.192;2024-01-07T12:45:53;8.97;;;6.10;;
18102;SDS011;9178;51.120;6.192;2024-01-07T12:48:43;7.97;;;5.93;;
18102;SDS011;9178;51.120;6.192;2024-01-07T12:51:16;7.17;;;5.77;;
18102;SDS011;9178;51.120;6.192;2024-01-07T12:53:46;8.90;;;6.13;;
18102;SDS011;9178;51.120;6.192;2024-01-07T12:56:20;8.20;;;6.27;;
18102;SDS011;9178;51.120;6.192;2024-01-07T12:58:50;7.33;;;5.90;;
18102;SDS011;9178;51.120;6.192;2024-01-07T13:01:20;8.10;;;6.20;;
18102;SDS011;9178;51.120;6.192;2024-01-07T13:03:49;9.97;;;6.53;;
18102;SDS011;9178;51.120;6.192;2024-01-07T13:06:17;7.80;;;6.50;;
18102;SDS011;9178;51.120;6.192;2024-01-07T13:08:46;7.27;;;5.47;;
18102;SDS011;9178;51.120;6.192;2024-01-07T13:11:19;6.43;;;5.70;;
18102;SDS011;9178;51.120;6.192;2024-01-07T13:13:47;6.67;;;5.57;;
18102;SDS011;9178;51.120;6.192;2024-01-07T13:16:15;6.97;;;5.93;;
18102;SDS011;9178;51.120;6.192;2024-01-07T13:18:46;6.37;;;5.43;;
18102;SDS011;9178;51.120;6.192;2024-01-07T13:21:14;8.47;;;6.37;;
18102;SDS011;9178;51.120;6.192;2024-01-07T13:23:43;8.90;;;6.77;;
18102;SDS011;9178;51.120;6.192;2024-01-07T13:26:21;7.73;;;6.37;;
18102;SDS011;9178;51.120;6.192;2024-01-07T13:28:51;5.50;;;4.50;;
18102;SDS011;9178;51.120;6.192;2024-01-07T13:31:24;6.13;;;4.83;;
18102;SDS011;9178;51.120;6.192;2024-01-07T13:33:54;6.30;;;5.13;;
18102;SDS011;9178;51.120;6.192;2024-01-07T13:36:25;5.90;;;5.30;;
18102;SDS011;9178;51.120;6.192;2024-01-07T13:38:53;5.87;;;5.07;;
18102;SDS011;9178;51.120;6.192;2024-01-07T13:41:20;5.77;;;4.43;;
18102;SDS011;9178;51.120;6.192;2024-01-07T13:43:50;6.80;;;4.43;;
18102;SDS011;9178;51.120;6.192;2024-01-07T13:46:20;5.23;;;4.10;;
18102;SDS011;9178;51.120;6.192;2024-01-07T13:48:48;5.87;;;4.83;;
18102;SDS011;9178;51.120;6.192;2024-01-07T13:51:20;5.87;;;4.23;;
18102;SDS011;9178;51.120;6.192;2024-01-07T13:53:49;7.83;;;5.00;;
18102;SDS011;9178;51.120;6.192;2024-01-07T13:56:18;7.53;;;5.03;;
18102;SDS011;9178;51.120;6.192;2024-01-07T13:58:50;6.00;;;4.67;;
18102;SDS011;9178;51.120;6.192;2024-01-07T14:01:17;7.17;;;5.23;;
18102;SDS011;9178;51.120;6.192;2024-01-07T14:03:54;6.13;;;4.33;;
18102;SDS011;9178;51.120;6.192;2024-01-07T14:06:23;6.97;;;4.20;;
18102;SDS011;9178;51.120;6.192;2024-01-07T14:08:52;6.17;;;4.50;;
18102;SDS011;9178;51.120;6.192;2024-01-07T14:11:22;6.70;;;4.67;;
18102;SDS011;9178;51.120;6.192;2024-01-07T14:13:52;5.97;;;4.67;;
18102;SDS011;9178;51.120;6.192;2024-01-07T14:16:19;7.37;;;4.70;;
18102;SDS011;9178;51.120;6.192;2024-01-07T14:18:46;6.00;;;5.03;;
18102;SDS011;9178;51.120;6.192;2024-01-07T14:21:20;6.37;;;5.10;;
18102;SDS011;9178;51.120;6.192;2024-01-07T14:23:47;7.00;;;4.60;;
18102;SDS011;9178;51.120;6.192;2024-01-07T14:26:16;4.70;;;4.27;;
18102;SDS011;9178;51.120;6.192;2024-01-07T14:28:48;5.23;;;4.63;;
18102;SDS011;9178;51.120;6.192;2024-01-07T14:31:15;4.80;;;4.27;;
18102;SDS011;9178;51.120;6.192;2024-01-07T14:33:47;5.93;;;4.53;;
18102;SDS011;9178;51.120;6.192;2024-01-07T14:36:17;4.30;;;3.80;;
18102;SDS011;9178;51.120;6.192;2024-01-07T14:38:44;3.83;;;3.53;;
18102;SDS011;9178;51.120;6.192;2024-01-07T14:41:13;7.47;;;3.87;;
18102;SDS011;9178;51.120;6.192;2024-01-07T14:43:41;4.50;;;3.60;;
18102;SDS011;9178;51.120;6.192;2024-01-07T14:46:09;4.93;;;3.83;;
18102;SDS011;9178;51.120;6.192;2024-01-07T14:48:36;4.23;;;3.83;;
18102;SDS011;9178;51.120;6.192;2024-01-07T14:51:06;6.20;;;3.50;;
18102;SDS011;9178;51.120;6.192;2024-01-07T14:53:33;3.80;;;3.40;;